Time;durP1;ratioP1;P1;durP2;ratioP2;P2;SDS_P1;SDS_P2;PMS_P1;PMS_P2;Temp;Humidity;BMP_temperature;BMP_pressure;BME280_temperature;BME280_humidity;BME280_pressure;Samples;Min_cycle;Max_cycle;Signal;HPM_P1;HPM_P2
2022/12/21 00:00:06;;;;;;;;;4.25;3.00;;;;;12.47;89.56;100911.81;5018554;28;46247;-88
2022/12/21 00:02:33;;;;;;;;;6.25;3.25;;;;;12.44;89.65;100912.75;5035511;28;45503;-88
2022/12/21 00:05:09;;;;;;;;;4.50;2.50;;;;;12.40;89.45;100905.94;5036146;28;45470;-88
2022/12/21 00:07:39;;;;;;;;;5.75;3.75;;;;;12.44;89.71;100917.13;5037391;28;45582;-88
2022/12/21 00:10:08;;;;;;;;;3.75;3.75;;;;;12.43;89.63;100912.84;5038812;28;45281;-86
2022/12/21 00:12:33;;;;;;;;;3.75;2.00;;;;;12.45;89.32;100916.25;5027783;28;45303;-88
2022/12/21 00:15:01;;;;;;;;;7.00;3.75;;;;;12.45;89.56;100914.47;5018542;28;45303;-88
2022/12/21 00:17:29;;;;;;;;;7.25;4.50;;;;;12.45;89.47;100911.88;5018288;28;48274;-88
2022/12/21 00:19:59;;;;;;;;;2.50;2.50;;;;;12.45;89.59;100908.41;5035780;28;45302;-87
2022/12/21 00:22:24;;;;;;;;;4.75;4.00;;;;;12.44;89.77;100912.75;5018942;28;45331;-87
2022/12/21 00:24:50;;;;;;;;;7.00;3.50;;;;;12.43;90.07;100915.44;5018214;28;45219;-87
2022/12/21 00:27:15;;;;;;;;;6.25;4.00;;;;;12.44;89.62;100917.13;5001507;28;46946;-88
2022/12/21 00:29:41;;;;;;;;;5.50;5.50;;;;;12.42;89.61;100913.72;5036185;28;45250;-87
2022/12/21 00:32:08;;;;;;;;;3.50;3.50;;;;;12.40;90.04;100908.56;5018132;28;45840;-87
2022/12/21 00:34:33;;;;;;;;;6.25;6.00;;;;;12.39;90.02;100912.94;5018347;28;45524;-87
2022/12/21 00:37:06;;;;;;;;;5.00;4.00;;;;;12.39;89.80;100905.09;5018157;28;46786;-87
2022/12/21 00:39:31;;;;;;;;;6.75;6.00;;;;;12.39;89.99;100906.88;5002556;28;45535;-86
2022/12/21 00:41:57;;;;;;;;;3.50;3.50;;;;;12.37;89.63;100911.28;5025373;28;45473;-87
2022/12/21 00:44:22;;;;;;;;;6.50;4.00;;;;;12.35;89.16;100906.13;5021134;28;45346;-86
2022/12/21 00:46:48;;;;;;;;;5.50;4.00;;;;;12.36;89.78;100914.78;5037650;28;46374;-88
2022/12/21 00:49:18;;;;;;;;;3.25;3.25;;;;;12.37;89.70;100906.91;5055379;28;45421;-88
2022/12/21 00:51:43;;;;;;;;;7.25;6.50;;;;;12.39;89.67;100902.50;5056053;28;45295;-88
2022/12/21 00:54:11;;;;;;;;;6.25;3.75;;;;;12.40;89.52;100900.72;5037980;28;45600;-88
2022/12/21 00:56:37;;;;;;;;;8.00;3.75;;;;;12.40;89.68;100906.78;5037984;28;46244;-87
2022/12/21 00:59:04;;;;;;;;;5.50;5.50;;;;;12.40;89.76;100909.41;5040755;28;45365;-89
2022/12/21 01:01:32;;;;;;;;;5.50;3.75;;;;;12.38;90.07;100918.19;5059655;28;45440;-87
2022/12/21 01:03:58;;;;;;;;;5.75;3.25;;;;;12.39;89.69;100915.53;5041233;28;45354;-88
2022/12/21 01:06:33;;;;;;;;;4.00;4.00;;;;;12.38;89.68;100912.97;5024441;28;48392;-87
2022/12/21 01:08:59;;;;;;;;;7.00;4.00;;;;;12.37;90.11;100916.50;5037829;28;45305;-88
2022/12/21 01:11:27;;;;;;;;;5.50;3.00;;;;;12.38;89.97;100923.41;5038082;28;45265;-88
2022/12/21 01:13:56;;;;;;;;;6.50;3.75;;;;;12.39;89.82;100920.75;5033505;28;45345;-87
2022/12/21 01:16:24;;;;;;;;;7.75;3.50;;;;;12.40;90.03;100921.59;5040688;28;48407;-88
2022/12/21 01:18:51;;;;;;;;;5.50;3.25;;;;;12.39;89.78;100920.75;5040797;28;45692;-88
2022/12/21 01:21:22;;;;;;;;;5.25;4.75;;;;;12.42;89.52;100924.16;5024602;28;45292;-87
2022/12/21 01:23:50;;;;;;;;;4.50;3.00;;;;;12.42;90.01;100925.00;5040923;28;45298;-87
2022/12/21 01:26:16;;;;;;;;;5.50;2.00;;;;;12.43;89.29;100920.66;5058754;28;47205;-87
2022/12/21 01:28:42;;;;;;;;;3.00;3.00;;;;;12.43;89.49;100924.13;5041153;28;45262;-88
2022/12/21 01:31:07;;;;;;;;;3.00;3.00;;;;;12.44;89.80;100931.03;5024554;28;45564;-87
2022/12/21 01:33:32;;;;;;;;;2.75;2.25;;;;;12.44;89.80;100936.25;5040699;28;45400;-87
2022/12/21 01:36:03;;;;;;;;;3.25;3.00;;;;;12.46;89.80;100944.03;5040934;28;45362;-87
2022/12/21 01:38:31;;;;;;;;;3.75;3.00;;;;;12.47;89.47;100945.75;5058916;28;45665;-87
2022/12/21 01:40:57;;;;;;;;;8.50;3.00;;;;;12.47;89.29;100938.78;5056597;28;45258;-87
2022/12/21 01:43:44;;;;;;;;;4.50;2.50;;;;;12.49;89.77;100943.94;5038598;28;45484;-88
2022/12/21 01:46:21;;;;;;;;;6.75;3.00;;;;;12.47;89.31;100945.75;5036803;28;46449;-87
2022/12/21 01:49:01;;;;;;;;;4.00;3.00;;;;;12.44;89.38;100957.16;5037610;28;45405;-87
2022/12/21 01:51:27;;;;;;;;;5.00;4.00;;;;;12.40;89.30;100961.59;5038451;28;45270;-87
2022/12/21 01:53:59;;;;;;;;;2.50;2.50;;;;;12.37;89.14;100964.34;5037483;28;45511;-87
2022/12/21 01:56:31;;;;;;;;;2.75;1.00;;;;;12.34;87.87;100981.84;5020455;28;48145;-87
2022/12/21 01:59:09;;;;;;;;;1.00;1.00;;;;;12.28;88.25;100980.31;5037121;28;45360;-87
2022/12/21 02:01:35;;;;;;;;;2.00;0.00;;;;;12.23;87.21;100983.97;5036820;28;45473;-88
2022/12/21 02:04:01;;;;;;;;;1.00;1.00;;;;;12.16;86.23;100986.75;5036935;28;45381;-87
2022/12/21 02:06:32;;;;;;;;;0.75;0.75;;;;;12.06;86.20;100990.56;5036758;28;45338;-87
2022/12/21 02:09:00;;;;;;;;;0.50;0.00;;;;;11.95;86.32;100985.66;5035662;28;45835;-87
2022/12/21 02:11:25;;;;;;;;;0.00;0.00;;;;;11.91;86.01;100996.25;5035571;28;45978;-87
2022/12/21 02:13:53;;;;;;;;;0.00;0.00;;;;;11.81;86.14;100990.41;5033982;28;45416;-88
2022/12/21 02:16:50;;;;;;;;;0.00;0.00;;;;;11.74;86.08;100986.31;5020521;28;46485;-88
2022/12/21 02:19:48;;;;;;;;;0.50;0.00;;;;;11.67;85.72;100990.00;5020179;28;45731;-86
2022/12/21 02:22:33;;;;;;;;;1.00;0.00;;;;;11.58;85.73;100984.13;5038271;28;45238;-87
2022/12/21 02:25:34;;;;;;;;;0.00;0.00;;;;;11.54;85.93;100982.50;5021102;28;45644;-88
2022/12/21 02:28:22;;;;;;;;;1.00;0.00;;;;;11.49;85.76;100976.56;5020108;28;46456;-88
2022/12/21 02:31:09;;;;;;;;;0.00;0.00;;;;;11.43;85.58;100974.16;5020329;28;45563;-88
2022/12/21 02:34:16;;;;;;;;;0.00;0.00;;;;;11.32;85.88;100984.03;5038119;28;45291;-88
2022/12/21 02:36:49;;;;;;;;;0.75;0.00;;;;;11.23;85.37;100988.56;4924832;28;45420;-88
2022/12/21 02:39:41;;;;;;;;;0.00;0.00;;;;;11.16;85.43;100979.25;4941020;28;46353;-87
2022/12/21 02:45:28;;;;;;;;;0.00;0.00;;;;;11.04;86.17;100980.41;4943037;28;45329;-88
2022/12/21 02:48:18;;;;;;;;;0.75;0.75;;;;;10.98;85.73;100977.97;4940793;28;45576;-88
2022/12/21 02:50:48;;;;;;;;;0.00;0.00;;;;;10.94;85.59;100981.56;4956528;28;45581;-88
2022/12/21 02:53:20;;;;;;;;;0.00;0.00;;;;;10.90;85.44;100989.50;4940848;28;45427;-88
2022/12/21 02:55:46;;;;;;;;;1.00;1.00;;;;;10.86;85.93;100988.72;4940377;28;45373;-87
2022/12/21 02:58:17;;;;;;;;;0.00;0.00;;;;;10.83;85.78;100991.41;4956155;28;45278;-87
2022/12/21 03:00:56;;;;;;;;;3.00;0.00;;;;;10.78;85.78;100983.72;4956866;28;46636;-87
2022/12/21 03:04:03;;;;;;;;;1.00;0.00;;;;;10.77;85.93;100997.66;4956420;28;45471;-87
2022/12/21 03:06:47;;;;;;;;;3.00;0.00;;;;;10.73;85.80;100988.16;4939939;28;46063;-87
2022/12/21 03:09:36;;;;;;;;;0.00;0.00;;;;;10.71;86.01;100986.50;4939998;28;45444;-88
2022/12/21 03:12:34;;;;;;;;;1.00;1.00;;;;;10.67;85.71;100990.94;4970406;28;46425;-88
2022/12/21 03:15:37;;;;;;;;;1.00;0.75;;;;;10.64;86.33;100986.69;5057011;28;45684;-88
2022/12/21 03:18:13;;;;;;;;;1.00;1.00;;;;;10.63;86.17;100999.72;5057596;28;45296;-87
2022/12/21 03:20:59;;;;;;;;;1.00;1.00;;;;;10.59;86.14;101000.72;5039218;28;45283;-86
2022/12/21 03:23:35;;;;;;;;;1.00;1.00;;;;;10.55;86.19;100996.44;5039193;28;45955;-87
2022/12/21 03:26:06;;;;;;;;;2.00;1.00;;;;;10.51;86.26;100994.81;5038841;28;45707;-87
2022/12/21 03:28:34;;;;;;;;;0.50;0.50;;;;;10.46;85.91;100994.94;5038872;28;45445;-87
2022/12/21 03:31:07;;;;;;;;;1.00;1.00;;;;;10.45;86.01;101006.22;5022679;28;45417;-86
2022/12/21 03:33:38;;;;;;;;;2.50;1.00;;;;;10.44;86.35;101001.94;5039315;28;45526;-87
2022/12/21 03:36:14;;;;;;;;;0.75;0.00;;;;;10.42;86.33;101004.56;5039058;28;45716;-87
2022/12/21 03:38:45;;;;;;;;;0.00;0.00;;;;;10.43;86.48;101010.63;5038999;28;45444;-86
2022/12/21 03:41:21;;;;;;;;;0.00;0.00;;;;;10.39;86.61;101009.00;5038932;28;45481;-87
2022/12/21 03:43:48;;;;;;;;;0.75;0.75;;;;;10.39;86.37;101012.44;5038569;28;46028;-88
2022/12/21 03:46:22;;;;;;;;;1.00;1.00;;;;;10.38;86.71;101010.75;5022363;28;45841;-87
2022/12/21 03:48:53;;;;;;;;;1.25;0.75;;;;;10.41;86.99;101008.06;5022838;28;45339;-87
2022/12/21 03:51:26;;;;;;;;;0.00;0.00;;;;;10.44;86.56;101009.75;5056980;28;45205;-87
2022/12/21 03:54:00;;;;;;;;;0.00;0.00;;;;;10.43;86.89;101008.03;5038679;28;46091;-86
2022/12/21 03:56:34;;;;;;;;;0.50;0.50;;;;;10.42;86.12;101007.19;5038406;28;45516;-87
2022/12/21 03:59:02;;;;;;;;;0.00;0.00;;;;;10.43;86.74;101008.03;5039134;28;45592;-87
2022/12/21 04:01:57;;;;;;;;;0.25;0.00;;;;;10.43;86.28;101014.06;5038807;28;45553;-87
2022/12/21 04:04:31;;;;;;;;;0.25;0.25;;;;;10.45;86.56;101021.84;5022193;28;47755;-88
2022/12/21 04:07:00;;;;;;;;;1.00;1.00;;;;;10.44;86.24;101010.59;5021908;28;45858;-87
2022/12/21 04:09:25;;;;;;;;;1.25;1.00;;;;;10.45;86.28;101014.03;5038516;28;45395;-87
2022/12/21 04:14:37;;;;;;;;;1.00;1.00;;;;;10.44;86.05;101018.41;5036232;28;45717;-87
2022/12/21 04:17:10;;;;;;;;;0.00;0.00;;;;;10.43;86.00;101016.66;5019188;28;45779;-87
2022/12/21 04:30:35;;;;;;;;;0.00;0.00;;;;;10.40;86.04;101036.72;5036387;28;45551;-87
2022/12/21 04:33:00;;;;;;;;;0.00;0.00;;;;;10.39;85.84;101037.63;5020224;28;45536;-87
2022/12/21 04:35:28;;;;;;;;;0.25;0.25;;;;;10.39;85.64;101029.81;5004662;28;58372;-87
2022/12/21 04:37:53;;;;;;;;;0.00;0.00;;;;;10.37;86.09;101032.44;5005351;28;45502;-87
2022/12/21 04:40:28;;;;;;;;;2.00;1.00;;;;;10.35;85.96;101044.63;5021613;28;45315;-87
2022/12/21 04:42:55;;;;;;;;;0.25;0.25;;;;;10.34;86.02;101036.88;5023218;28;45446;-87
2022/12/21 04:45:21;;;;;;;;;0.75;0.75;;;;;10.31;86.01;101039.53;5039348;28;46599;-87
2022/12/21 04:47:50;;;;;;;;;2.00;1.00;;;;;10.27;85.60;101036.97;5021720;28;45393;-87
2022/12/21 04:50:15;;;;;;;;;1.25;1.00;;;;;10.24;85.62;101031.84;5022344;28;45374;-87
2022/12/21 04:52:41;;;;;;;;;0.00;0.00;;;;;10.22;86.12;101031.00;5039527;28;45506;-87
2022/12/21 04:55:06;;;;;;;;;0.75;0.75;;;;;10.18;85.45;101038.94;5037972;28;45427;-87
2022/12/21 04:57:32;;;;;;;;;2.00;0.00;;;;;10.14;85.40;101035.56;5039385;28;45375;-87
2022/12/21 04:59:57;;;;;;;;;1.00;0.50;;;;;10.09;85.40;101034.78;5038172;28;45459;-87
2022/12/21 05:02:25;;;;;;;;;2.00;0.00;;;;;10.04;85.22;101034.03;5038200;28;45374;-87
2022/12/21 05:04:50;;;;;;;;;2.00;0.25;;;;;9.99;85.12;101041.06;5038125;28;46141;-87
2022/12/21 05:07:18;;;;;;;;;1.00;1.00;;;;;9.92;85.14;101050.75;5037994;28;45366;-88
2022/12/21 05:09:46;;;;;;;;;1.00;1.00;;;;;9.87;85.48;101050.00;5037474;28;45309;-87
2022/12/21 05:12:11;;;;;;;;;2.00;1.00;;;;;9.82;85.16;101049.22;5032095;28;45456;-87
2022/12/21 05:14:37;;;;;;;;;2.25;1.00;;;;;9.75;85.19;101055.44;5020958;28;46985;-87
2022/12/21 05:17:02;;;;;;;;;1.50;1.00;;;;;9.71;85.29;101051.19;5022011;28;45402;-88
2022/12/21 05:19:28;;;;;;;;;1.00;1.00;;;;;9.65;85.28;101055.63;5021208;28;45432;-87
2022/12/21 05:21:53;;;;;;;;;2.25;1.00;;;;;9.59;85.38;101058.34;5038740;28;45560;-88
2022/12/21 05:24:19;;;;;;;;;1.00;1.00;;;;;9.54;85.46;101057.59;5020822;28;45325;-88
2022/12/21 05:26:46;;;;;;;;;1.00;1.00;;;;;9.49;85.35;101060.28;5020985;28;45614;-88
2022/12/21 05:29:12;;;;;;;;;1.25;0.75;;;;;9.42;85.48;101050.88;5021584;28;45312;-87
2022/12/21 05:31:37;;;;;;;;;1.00;1.00;;;;;9.36;85.48;101053.63;5021156;28;45636;-87
2022/12/21 05:34:03;;;;;;;;;7.75;2.00;;;;;9.29;85.74;101050.25;5020900;28;45630;-88
2022/12/21 05:36:29;;;;;;;;;2.75;2.00;;;;;9.25;86.17;101048.59;5021076;28;45379;-87
2022/12/21 05:38:57;;;;;;;;;2.50;2.50;;;;;9.24;86.51;101051.22;5020732;28;45432;-87
2022/12/21 05:41:23;;;;;;;;;5.25;5.00;;;;;9.22;86.12;101051.25;5021359;28;45588;-87
2022/12/21 05:43:55;;;;;;;;;6.00;5.75;;;;;9.20;86.37;101052.19;5037451;28;46195;-88
2022/12/21 05:46:21;;;;;;;;;2.00;2.00;;;;;9.18;86.52;101048.75;5037332;28;45345;-87
2022/12/21 05:48:46;;;;;;;;;5.25;2.00;;;;;9.17;86.76;101049.63;5021396;28;45258;-87
2022/12/21 05:51:13;;;;;;;;;2.75;1.00;;;;;9.15;86.77;101054.84;5038552;28;45634;-87
2022/12/21 05:53:45;;;;;;;;;1.00;1.00;;;;;9.14;86.86;101047.06;5036938;28;46235;-87
2022/12/21 05:56:11;;;;;;;;;0.00;0.00;;;;;9.15;86.79;101061.78;5021049;28;45727;-87
2022/12/21 05:58:37;;;;;;;;;2.00;0.25;;;;;9.14;86.64;101054.88;5037313;28;45309;-87
2022/12/21 06:01:05;;;;;;;;;2.00;1.00;;;;;9.13;86.58;101055.75;5037240;28;45403;-88
2022/12/21 06:03:30;;;;;;;;;1.75;1.75;;;;;9.12;86.36;101047.13;5038163;28;45407;-87
2022/12/21 06:06:06;;;;;;;;;1.25;1.00;;;;;9.13;86.79;101061.81;5037930;28;45460;-87
2022/12/21 06:08:32;;;;;;;;;2.00;0.75;;;;;9.13;86.63;101055.75;5047310;28;45345;-87
2022/12/21 06:11:03;;;;;;;;;1.75;1.00;;;;;9.11;86.60;101060.97;5040837;28;45390;-87
2022/12/21 06:13:28;;;;;;;;;2.00;0.75;;;;;9.09;86.46;101057.56;5052074;28;47221;-87
2022/12/21 06:15:54;;;;;;;;;0.75;0.75;;;;;9.09;86.54;101057.56;5040235;28;45366;-88
2022/12/21 06:18:26;;;;;;;;;1.00;1.00;;;;;9.06;86.54;101055.88;5040687;28;45413;-87
2022/12/21 06:20:57;;;;;;;;;0.00;0.00;;;;;9.06;86.25;101055.88;5041429;28;45470;-87
2022/12/21 06:23:22;;;;;;;;;1.50;0.75;;;;;9.08;86.39;101067.09;5040318;28;45517;-87
2022/12/21 06:25:48;;;;;;;;;1.00;1.00;;;;;9.09;86.39;101066.19;5023629;28;45605;-87
2022/12/21 06:28:13;;;;;;;;;2.00;1.00;;;;;9.11;86.21;101069.63;5023423;28;45485;-87
2022/12/21 06:30:39;;;;;;;;;0.00;0.00;;;;;9.11;86.32;101073.97;5040150;28;45372;-88
2022/12/21 06:33:04;;;;;;;;;1.00;1.00;;;;;9.11;86.03;101073.97;5023210;28;52088;-87
2022/12/21 06:35:29;;;;;;;;;0.75;0.75;;;;;9.13;85.79;101080.00;5039730;28;47304;-87
2022/12/21 06:37:57;;;;;;;;;2.00;1.00;;;;;9.14;86.17;101076.53;5039822;28;45459;-88
2022/12/21 06:40:22;;;;;;;;;4.50;1.00;;;;;9.15;85.75;101077.38;5040317;28;45551;-87
2022/12/21 06:42:48;;;;;;;;;2.00;1.00;;;;;9.08;85.91;101082.69;5039612;28;46812;-87
2022/12/21 06:45:13;;;;;;;;;0.50;0.50;;;;;9.04;85.95;101078.41;5019737;28;45513;-87
2022/12/21 06:47:39;;;;;;;;;3.00;0.25;;;;;9.03;85.90;101075.84;5020030;28;45342;-88
2022/12/21 06:50:05;;;;;;;;;0.00;0.00;;;;;9.00;86.23;101074.16;5003434;28;45319;-87
2022/12/21 06:52:32;;;;;;;;;0.00;0.00;;;;;9.00;86.13;101076.75;5019417;28;46355;-88
2022/12/21 06:54:59;;;;;;;;;1.25;0.00;;;;;9.00;86.22;101075.91;5035798;28;45883;-87
2022/12/21 06:57:25;;;;;;;;;0.00;0.00;;;;;8.99;86.50;101076.75;5003644;28;45383;-87
2022/12/21 06:59:58;;;;;;;;;0.00;0.00;;;;;8.97;86.12;101078.53;5003125;28;45243;-88
2022/12/21 07:02:23;;;;;;;;;0.50;0.00;;;;;8.98;86.08;101082.84;5037089;28;46350;-87
2022/12/21 07:04:52;;;;;;;;;2.00;1.00;;;;;8.97;85.95;101076.81;5002254;28;45386;-88
2022/12/21 07:07:18;;;;;;;;;3.25;1.00;;;;;8.96;86.35;101082.88;5019699;28;45446;-87
2022/12/21 07:09:50;;;;;;;;;1.00;0.00;;;;;8.96;85.93;101088.06;5016135;28;45429;-87
2022/12/21 07:12:16;;;;;;;;;1.75;1.00;;;;;8.96;86.01;101087.22;5027716;28;46570;-87
2022/12/21 07:14:41;;;;;;;;;1.25;1.00;;;;;8.98;86.20;101086.31;4983186;28;45319;-88
2022/12/21 07:17:06;;;;;;;;;0.25;0.00;;;;;8.97;85.57;101097.59;4999923;28;45346;-89
2022/12/21 07:19:32;;;;;;;;;2.50;0.25;;;;;8.97;85.87;101088.91;5017197;28;45235;-87
2022/12/21 07:21:57;;;;;;;;;1.25;1.00;;;;;8.97;86.05;101091.50;4999413;28;45335;-87
2022/12/21 07:24:23;;;;;;;;;1.00;1.00;;;;;8.98;86.00;101088.91;4999286;28;45448;-87
2022/12/21 07:26:48;;;;;;;;;2.00;0.50;;;;;9.03;85.97;101083.66;5017034;28;45470;-88
2022/12/21 07:29:13;;;;;;;;;0.00;0.00;;;;;9.04;85.89;101088.78;4999338;28;45565;-87
2022/12/21 07:31:39;;;;;;;;;2.50;1.00;;;;;9.03;85.38;101091.44;4999164;28;47026;-88
2022/12/21 07:34:04;;;;;;;;;2.00;2.00;;;;;9.04;85.45;101095.72;4982550;28;45450;-87
2022/12/21 07:36:32;;;;;;;;;1.75;1.00;;;;;9.03;85.31;101110.47;5017104;28;45322;-87
2022/12/21 07:38:58;;;;;;;;;0.00;0.00;;;;;9.05;85.54;101113.03;5000089;28;45312;-88
2022/12/21 07:41:33;;;;;;;;;;;;;;;;;;;;;
2022/12/21 07:43:59;;;;;;;;;1.00;1.00;;;;;9.07;85.19;101117.31;5016193;28;73971;-88
2022/12/21 07:46:26;;;;;;;;;0.00;0.00;;;;;9.08;85.38;101118.16;5019207;28;45309;-88
2022/12/21 07:48:54;;;;;;;;;7.50;1.75;;;;;9.10;85.37;101126.78;5019335;28;45502;-87
2022/12/21 07:51:19;;;;;;;;;5.50;2.00;;;;;9.08;85.25;101121.63;5036596;28;46334;-87
2022/12/21 07:53:45;;;;;;;;;0.00;0.00;;;;;9.07;85.02;101119.06;5018850;28;45422;-87
2022/12/21 07:56:16;;;;;;;;;1.25;0.25;;;;;9.10;85.54;101129.38;5036728;28;45494;-87
2022/12/21 07:58:41;;;;;;;;;2.50;1.00;;;;;9.15;85.22;101142.28;5018803;28;45364;-87
2022/12/21 08:01:16;;;;;;;;;2.00;1.50;;;;;9.23;85.53;101136.09;5018494;28;45435;-86
2022/12/21 08:03:47;;;;;;;;;0.00;0.00;;;;;9.24;85.01;101140.41;5018619;28;45706;-88
2022/12/21 08:06:14;;;;;;;;;1.00;0.50;;;;;9.25;84.83;101134.34;5036667;28;45340;-87
2022/12/21 08:08:40;;;;;;;;;3.50;1.00;;;;;9.29;84.91;101128.19;5017485;28;45560;-87
2022/12/21 08:11:16;;;;;;;;;2.00;1.00;;;;;9.34;84.68;101132.44;5018622;28;47004;-86
2022/12/21 08:13:41;;;;;;;;;2.50;1.00;;;;;9.40;85.32;101132.34;4999268;28;45674;-89
2022/12/21 08:16:09;;;;;;;;;3.25;1.50;;;;;9.43;84.41;101129.69;4998846;28;45497;-89
2022/12/21 08:18:34;;;;;;;;;2.25;1.25;;;;;9.45;84.73;101126.19;4998647;28;45455;-89
2022/12/21 08:21:12;;;;;;;;;5.00;1.00;;;;;9.49;84.52;101134.78;4983951;28;46881;-92
2022/12/21 08:23:51;;;;;;;;;5.75;1.25;;;;;9.49;84.39;101130.44;5000044;28;45794;-91
2022/12/21 08:26:18;;;;;;;;;5.25;1.00;;;;;9.54;84.31;101125.16;5001413;28;45208;-90
2022/12/21 08:32:51;;;;;;;;;2.75;0.00;;;;;9.65;84.13;101122.34;4998037;28;46840;-89
2022/12/21 08:35:16;;;;;;;;;1.00;1.00;;;;;9.69;83.74;101108.41;5015523;28;45350;-87
2022/12/21 08:45:24;;;;;;;;;;;;;;;;;;;;;
2022/12/21 08:56:09;;;;;;;;;;;;;;;;;;;;;
2022/12/21 09:02:04;;;;;;;;;1.00;1.00;;;;;9.89;82.91;101121.03;4841706;29;45596;-93
2022/12/21 09:04:55;;;;;;;;;1.75;0.25;;;;;9.91;82.56;101121.00;4825101;29;45522;-92
2022/12/21 09:07:52;;;;;;;;;1.00;1.00;;;;;9.99;83.08;101116.47;4842228;29;45419;-92
2022/12/21 09:10:57;;;;;;;;;3.00;1.00;;;;;10.05;82.57;101124.19;4809188;29;45426;-95
2022/12/21 09:16:51;;;;;;;;;5.75;0.75;;;;;10.03;82.49;101120.75;4794953;29;45475;-94
2022/12/21 09:19:29;;;;;;;;;2.00;0.00;;;;;10.01;82.05;101128.59;4764650;29;45466;-96
2022/12/21 09:22:12;;;;;;;;;1.50;1.00;;;;;9.99;82.70;101114.75;4772853;29;46708;-94
2022/12/21 09:24:40;;;;;;;;;2.00;1.00;;;;;9.98;82.32;101114.78;4819085;29;45464;-96
2022/12/21 09:27:05;;;;;;;;;4.25;1.25;;;;;9.97;82.26;101121.72;4879832;29;45266;-95
2022/12/21 09:29:30;;;;;;;;;0.50;0.50;;;;;9.99;82.44;101135.56;4852977;29;45406;-95
2022/12/21 09:31:56;;;;;;;;;3.25;2.25;;;;;10.04;82.35;101141.50;4866564;29;45529;-93
2022/12/21 09:34:34;;;;;;;;;;;;;;;;;;;;;
2022/12/21 09:37:28;;;;;;;;;2.25;1.25;;;;;10.15;82.35;101143.06;4860187;29;68983;-94
2022/12/21 09:39:53;;;;;;;;;2.00;2.00;;;;;10.19;82.23;101140.34;4901818;29;44793;-93
2022/12/21 09:42:57;;;;;;;;;;;;;;;;;;;;;
2022/12/21 09:49:40;;;;;;;;;1.50;0.50;;;;;10.31;82.09;101154.00;4876779;28;45357;-92
2022/12/21 09:52:29;;;;;;;;;;;;;;;;;;;;;
2022/12/21 09:55:50;;;;;;;;;;;;;;;;;;;;;
2022/12/21 09:58:31;;;;;;;;;;;;;;;;;;;;;
2022/12/21 10:01:58;;;;;;;;;;;;;;;;;;;;;
2022/12/21 10:04:55;;;;;;;;;3.00;1.75;;;;;10.54;82.09;101169.16;4807576;29;45626;-91
2022/12/21 10:08:18;;;;;;;;;1.50;1.50;;;;;10.67;82.05;101177.53;4790558;29;48383;-92
2022/12/21 10:11:15;;;;;;;;;;;;;;;;;;;;;
2022/12/21 10:13:58;;;;;;;;;6.25;4.50;;;;;10.72;81.66;101168.75;4790305;29;67147;-88
2022/12/21 10:16:59;;;;;;;;;2.00;2.00;;;;;10.71;81.61;101169.63;4806458;29;45596;-86
2022/12/21 10:23:30;;;;;;;;;2.50;2.25;;;;;10.74;82.07;101137.47;4823748;29;45498;-93
2022/12/21 10:28:49;;;;;;;;;5.75;1.00;;;;;10.79;81.78;101130.38;4990550;28;46753;-96
2022/12/21 10:34:57;;;;;;;;;6.00;4.00;;;;;10.89;82.55;101142.31;4983226;28;45283;-95
2022/12/21 10:37:23;;;;;;;;;4.00;2.75;;;;;10.91;81.77;101137.91;4972068;28;45347;-90
2022/12/21 10:39:57;;;;;;;;;2.00;2.00;;;;;10.92;81.75;101124.00;4963923;28;45595;-93
2022/12/21 10:42:36;;;;;;;;;3.00;1.25;;;;;10.92;81.70;101120.53;4977316;28;47548;-93
2022/12/21 10:45:04;;;;;;;;;5.25;2.00;;;;;10.92;81.83;101110.09;4960749;28;45613;-91
2022/12/21 10:47:29;;;;;;;;;1.75;1.75;;;;;10.92;81.38;101105.78;4945614;28;45510;-91
2022/12/21 10:50:04;;;;;;;;;3.00;2.00;;;;;10.92;81.28;101104.91;4976790;28;45399;-90
2022/12/21 10:52:47;;;;;;;;;5.00;3.00;;;;;10.91;81.47;101101.44;4976655;28;47236;-88
2022/12/21 10:55:35;;;;;;;;;2.00;1.00;;;;;10.94;81.18;101090.97;4960613;28;45432;-87
2022/12/21 10:58:02;;;;;;;;;3.00;2.00;;;;;11.03;81.97;101087.25;4959984;28;45331;-88
2022/12/21 11:01:01;;;;;;;;;2.50;1.75;;;;;11.12;81.43;101089.63;4960180;28;45531;-90
2022/12/21 11:03:39;;;;;;;;;5.00;1.50;;;;;11.16;81.30;101073.03;4976217;28;45483;-89
2022/12/21 11:06:58;;;;;;;;;;;;;;;;;;;;;
2022/12/21 11:09:32;;;;;;;;;2.00;2.00;;;;;11.22;80.53;101065.06;4903400;28;68707;-88
2022/12/21 11:12:51;;;;;;;;;;;;;;;;;;;;;
2022/12/21 11:19:14;;;;;;;;;4.25;1.00;;;;;11.38;80.60;101049.84;4825143;29;45608;-91
2022/12/21 11:21:55;;;;;;;;;;;;;;;;;;;;;
2022/12/21 11:24:40;;;;;;;;;3.00;3.00;;;;;11.79;79.53;101045.25;4808497;29;68472;-88
2022/12/21 11:27:28;;;;;;;;;5.25;3.00;;;;;12.18;80.38;101047.59;4808155;29;46850;-89
2022/12/21 11:30:12;;;;;;;;;6.25;2.25;;;;;12.61;78.89;101048.00;4809440;29;45428;-89
2022/12/21 11:33:09;;;;;;;;;2.50;1.00;;;;;12.77;77.33;101050.94;4832667;29;45325;-87
2022/12/21 11:36:14;;;;;;;;;11.25;6.00;;;;;12.70;77.22;101033.78;4813634;29;45504;-90
2022/12/21 11:39:09;;;;;;;;;3.00;3.00;;;;;12.60;77.12;101033.22;4820702;29;45760;-92
2022/12/21 11:41:36;;;;;;;;;7.00;3.00;;;;;12.43;76.30;101028.56;4830325;29;45522;-91
2022/12/21 11:47:48;;;;;;;;;4.50;2.00;;;;;12.25;77.04;101014.31;4782826;29;45319;-89
2022/12/21 11:51:25;;;;;;;;;10.00;5.00;;;;;12.16;77.47;101010.22;4754712;29;47976;-93
2022/12/21 11:57:16;;;;;;;;;7.00;4.25;;;;;12.11;76.93;100993.00;4827483;29;45538;-88
2022/12/21 12:00:03;;;;;;;;;4.25;3.00;;;;;12.03;77.33;100993.25;4823186;29;45452;-87
2022/12/21 12:02:47;;;;;;;;;8.25;7.00;;;;;11.96;77.24;100994.34;4823102;29;46282;-89
2022/12/21 12:05:30;;;;;;;;;3.25;2.25;;;;;11.92;77.51;100982.28;4823391;29;45650;-89
2022/12/21 12:08:23;;;;;;;;;3.00;3.00;;;;;11.91;77.58;100976.22;4838628;29;45507;-89
2022/12/21 12:11:14;;;;;;;;;1.75;1.00;;;;;11.93;77.54;100981.41;4837852;29;45539;-89
2022/12/21 12:14:06;;;;;;;;;3.25;1.00;;;;;11.88;77.56;100970.22;4845391;29;46235;-87
2022/12/21 12:17:18;;;;;;;;;3.00;2.00;;;;;11.84;77.67;100964.25;4826599;29;45696;-89
2022/12/21 12:20:53;;;;;;;;;3.00;2.00;;;;;11.82;77.38;100966.03;4842178;29;45397;-91
2022/12/21 12:23:46;;;;;;;;;3.00;2.75;;;;;11.78;77.56;100948.78;4847709;28;45476;-95
2022/12/21 12:26:41;;;;;;;;;4.50;2.75;;;;;11.72;77.50;100948.94;4956633;28;46460;-95
2022/12/21 12:29:40;;;;;;;;;4.25;3.00;;;;;11.71;78.08;100965.53;4946813;28;45844;-92
2022/12/21 12:32:14;;;;;;;;;3.00;3.00;;;;;11.67;77.83;100964.75;4919194;28;45297;-93
2022/12/21 12:38:21;;;;;;;;;3.75;2.00;;;;;11.83;78.45;100946.91;4890264;29;46664;-89
2022/12/21 12:41:30;;;;;;;;;3.25;3.00;;;;;11.97;77.86;100941.28;4877055;29;45636;-92
2022/12/21 12:44:09;;;;;;;;;;;;;;;;;;;;;
2022/12/21 12:46:56;;;;;;;;;7.00;4.25;;;;;11.92;77.66;100920.56;4859919;29;71931;-92
2022/12/21 12:49:51;;;;;;;;;3.25;2.75;;;;;11.87;77.20;100922.44;4859596;29;45615;-90
2022/12/21 12:52:42;;;;;;;;;3.25;3.00;;;;;11.86;77.74;100919.84;4860179;29;45323;-93
2022/12/21 12:55:17;;;;;;;;;3.00;1.25;;;;;11.83;77.70;100910.38;4897986;29;45823;-93
2022/12/21 12:58:04;;;;;;;;;3.50;1.25;;;;;11.82;78.00;100909.50;4900703;29;47087;-89
2022/12/21 13:00:46;;;;;;;;;4.50;2.25;;;;;11.77;77.70;100900.13;4902092;29;46423;-92
2022/12/21 13:03:59;;;;;;;;;3.75;2.00;;;;;11.71;77.89;100893.34;4885920;29;46212;-93
2022/12/21 13:06:27;;;;;;;;;3.25;2.00;;;;;11.68;78.16;100892.59;4905030;29;45272;-94
2022/12/21 13:09:19;;;;;;;;;2.00;2.00;;;;;11.63;78.16;100895.34;4885928;29;45977;-94
2022/12/21 13:11:58;;;;;;;;;1.75;1.75;;;;;11.59;78.77;100883.31;4886259;29;45512;-89
2022/12/21 13:14:29;;;;;;;;;1.50;1.50;;;;;11.53;79.22;100873.91;4944628;28;45670;-90
2022/12/21 13:17:02;;;;;;;;;1.00;1.00;;;;;11.51;79.46;100869.66;4999465;28;45397;-93
2022/12/21 13:19:49;;;;;;;;;3.75;3.00;;;;;11.48;80.24;100854.09;4982309;28;45440;-92
2022/12/21 13:22:17;;;;;;;;;1.75;1.00;;;;;11.43;80.49;100849.88;4980422;28;45481;-87
2022/12/21 13:24:47;;;;;;;;;6.75;2.00;;;;;11.41;80.81;100850.84;4980405;28;45779;-87
2022/12/21 13:27:35;;;;;;;;;1.75;1.00;;;;;11.39;80.90;100840.44;4979469;28;45556;-85
2022/12/21 13:30:18;;;;;;;;;1.00;0.00;;;;;11.35;81.46;100836.25;4980499;28;45521;-87
2022/12/21 13:32:47;;;;;;;;;1.00;1.00;;;;;11.32;81.59;100827.66;4998541;28;46229;-87
2022/12/21 13:35:19;;;;;;;;;2.00;0.50;;;;;11.28;81.70;100828.66;4974913;28;45799;-86